Time;durP1;ratioP1;P1;durP2;ratioP2;P2;SDS_P1;SDS_P2;PMS_P1;PMS_P2;Temp;Humidity;BMP_temperature;BMP_pressure;BME280_temperature;BME280_humidity;BME280_pressure;Samples;Min_cycle;Max_cycle;Signal;HPM_P1;HPM_P2
2023/03/18 00:00:57;;;;;;;4.88;2.95;;;11.90;99.90;;;;;;4978638;28;20058;-75
2023/03/18 00:03:23;;;;;;;4.30;2.78;;;11.90;99.90;;;;;;4988446;28;20124;-75
2023/03/18 00:05:49;;;;;;;5.05;2.42;;;11.90;99.90;;;;;;4985741;28;20112;-75
2023/03/18 00:08:15;;;;;;;6.57;2.78;;;11.90;99.90;;;;;;5005719;28;20034;-75
2023/03/18 00:10:41;;;;;;;5.70;2.92;;;11.90;99.90;;;;;;4986052;28;20109;-75
2023/03/18 00:13:06;;;;;;;16.98;3.85;;;11.90;99.90;;;;;;5005318;28;20580;-75
2023/03/18 00:15:32;;;;;;;7.93;3.72;;;11.90;99.90;;;;;;4999636;28;20041;-75
2023/03/18 00:17:58;;;;;;;9.73;2.63;;;11.80;99.90;;;;;;5005536;28;20025;-75
2023/03/18 00:20:37;;;;;;;8.73;2.85;;;11.80;99.90;;;;;;5002889;28;20037;-75
2023/03/18 00:23:05;;;;;;;8.52;2.72;;;11.70;99.90;;;;;;4985217;28;20116;-75
2023/03/18 00:25:31;;;;;;;7.22;3.05;;;11.70;99.90;;;;;;4985489;28;20399;-76
2023/03/18 00:27:57;;;;;;;7.00;2.88;;;11.70;99.90;;;;;;5001188;28;20117;-76
2023/03/18 00:30:24;;;;;;;7.45;3.05;;;11.60;99.90;;;;;;5002789;28;20458;-76
2023/03/18 00:32:49;;;;;;;5.05;2.65;;;11.60;99.90;;;;;;5004987;28;20026;-76
2023/03/18 00:35:16;;;;;;;5.53;2.38;;;11.50;99.90;;;;;;5002710;28;20105;-76
2023/03/18 00:37:42;;;;;;;10.02;3.67;;;11.50;99.90;;;;;;4986635;28;20135;-77
2023/03/18 00:40:16;;;;;;;7.32;2.67;;;11.40;99.90;;;;;;5002765;28;20030;-76
2023/03/18 00:42:46;;;;;;;6.95;2.85;;;11.40;99.90;;;;;;4986306;28;20027;-76
2023/03/18 00:45:15;;;;;;;9.43;3.75;;;11.40;99.90;;;;;;5002325;28;20046;-75
2023/03/18 00:47:43;;;;;;;6.85;3.58;;;11.30;99.90;;;;;;4999550;28;20070;-75
2023/03/18 00:50:10;;;;;;;4.55;2.40;;;11.30;99.90;;;;;;4980389;28;20026;-75
2023/03/18 00:52:36;;;;;;;7.97;3.53;;;11.20;99.90;;;;;;4992496;28;20030;-76
2023/03/18 00:55:02;;;;;;;7.55;3.25;;;11.20;99.90;;;;;;5002356;28;20033;-75
2023/03/18 00:57:29;;;;;;;8.93;3.30;;;11.20;99.90;;;;;;4984506;28;20550;-75
2023/03/18 00:59:58;;;;;;;7.63;3.53;;;11.20;99.90;;;;;;4985197;28;20469;-75
2023/03/18 01:02:24;;;;;;;7.18;3.55;;;11.10;99.90;;;;;;4967951;28;20082;-76
2023/03/18 01:04:50;;;;;;;6.30;2.67;;;11.10;99.90;;;;;;4981600;28;20529;-76
2023/03/18 01:07:16;;;;;;;10.20;2.95;;;11.10;99.90;;;;;;4990557;28;20038;-76
2023/03/18 01:09:43;;;;;;;6.55;3.00;;;11.10;99.90;;;;;;4984208;28;20062;-75
2023/03/18 01:12:11;;;;;;;5.75;2.58;;;11.20;99.90;;;;;;5006990;28;20057;-75
2023/03/18 01:14:38;;;;;;;6.68;3.47;;;11.20;99.90;;;;;;4983144;28;20485;-75
2023/03/18 01:17:06;;;;;;;8.40;3.45;;;11.20;99.90;;;;;;4989850;28;20057;-75
2023/03/18 01:19:33;;;;;;;9.05;4.75;;;11.20;99.90;;;;;;5000137;28;20031;-76
2023/03/18 01:21:59;;;;;;;8.73;3.75;;;11.20;99.90;;;;;;4990699;28;20049;-75
2023/03/18 01:24:26;;;;;;;7.25;3.30;;;11.30;99.90;;;;;;4981407;28;20030;-75
2023/03/18 01:26:52;;;;;;;5.72;2.53;;;11.30;99.90;;;;;;4992100;28;20029;-75
2023/03/18 01:29:19;;;;;;;8.85;2.80;;;11.30;99.90;;;;;;4977162;28;20037;-75
2023/03/18 01:31:46;;;;;;;9.05;2.92;;;11.30;99.90;;;;;;5009705;28;20113;-75
2023/03/18 01:34:12;;;;;;;8.32;3.08;;;11.30;99.90;;;;;;4976854;28;20026;-76
2023/03/18 01:36:39;;;;;;;9.88;3.55;;;11.30;99.90;;;;;;5007753;28;20064;-76
2023/03/18 01:39:06;;;;;;;6.40;2.67;;;11.30;99.90;;;;;;4998826;28;20505;-76
2023/03/18 01:41:32;;;;;;;10.18;2.60;;;11.20;99.90;;;;;;4975232;28;20029;-76
2023/03/18 01:43:58;;;;;;;8.43;3.03;;;11.20;99.90;;;;;;4986044;28;20022;-76
2023/03/18 01:46:39;;;;;;;5.18;2.95;;;11.30;99.90;;;;;;4994425;28;20422;-76
2023/03/18 01:49:34;;;;;;;8.35;2.80;;;11.30;99.90;;;;;;5002086;28;20034;-75
2023/03/18 01:52:17;;;;;;;7.45;2.85;;;11.30;99.90;;;;;;4959524;28;20030;-75
2023/03/18 01:54:57;;;;;;;10.48;2.80;;;11.30;99.90;;;;;;4988550;28;20572;-75
2023/03/18 01:57:23;;;;;;;4.75;2.55;;;11.30;99.90;;;;;;4987579;28;20046;-76
2023/03/18 01:59:52;;;;;;;5.80;2.95;;;11.30;99.90;;;;;;4987940;28;20458;-76
2023/03/18 02:02:19;;;;;;;7.45;3.30;;;11.20;99.90;;;;;;4987517;28;20082;-75
2023/03/18 02:04:57;;;;;;;8.07;2.65;;;11.20;99.90;;;;;;4981146;28;20047;-75
2023/03/18 02:07:30;;;;;;;4.80;2.63;;;11.20;99.90;;;;;;4967931;28;20051;-76
2023/03/18 02:10:05;;;;;;;7.13;3.25;;;11.20;99.90;;;;;;4999254;28;20022;-76
2023/03/18 02:12:37;;;;;;;8.45;3.50;;;11.20;99.90;;;;;;4994096;28;20124;-75
2023/03/18 02:15:09;;;;;;;16.58;2.72;;;11.20;99.90;;;;;;4983865;28;20558;-75
2023/03/18 02:17:40;;;;;;;3.83;2.28;;;11.20;99.90;;;;;;4994653;28;20041;-76
2023/03/18 02:20:38;;;;;;;4.82;2.60;;;11.20;99.90;;;;;;4987720;28;20026;-76
2023/03/18 02:23:28;;;;;;;8.18;3.30;;;11.20;99.90;;;;;;4985084;28;20096;-76
2023/03/18 02:26:16;;;;;;;12.05;3.15;;;11.10;99.90;;;;;;4964829;28;20449;-76
2023/03/18 02:28:43;;;;;;;8.63;3.25;;;11.10;99.90;;;;;;4987870;28;20034;-76
2023/03/18 02:31:13;;;;;;;7.38;2.92;;;11.10;99.90;;;;;;4989834;28;20022;-75
2023/03/18 02:33:41;;;;;;;5.65;3.67;;;11.00;99.90;;;;;;4987949;28;20528;-76
2023/03/18 02:36:28;;;;;;;7.18;3.20;;;11.10;99.90;;;;;;4990121;28;20029;-76
2023/03/18 02:38:56;;;;;;;8.55;3.00;;;11.10;99.90;;;;;;4985489;28;20030;-76
2023/03/18 02:41:28;;;;;;;10.02;2.78;;;11.20;99.90;;;;;;4981914;28;20070;-76
2023/03/18 02:43:54;;;;;;;4.63;2.58;;;11.20;99.90;;;;;;5000526;28;20117;-76
2023/03/18 02:46:37;;;;;;;8.05;2.50;;;11.20;99.90;;;;;;4991152;28;20104;-76
2023/03/18 02:49:06;;;;;;;5.00;2.50;;;11.20;99.90;;;;;;5001858;28;20124;-76
2023/03/18 02:51:33;;;;;;;5.80;2.42;;;11.20;99.90;;;;;;4992933;28;20398;-76
2023/03/18 02:54:10;;;;;;;4.30;2.17;;;11.20;99.90;;;;;;5002049;28;20026;-76
2023/03/18 02:56:38;;;;;;;4.68;1.92;;;11.20;99.90;;;;;;4994037;28;20022;-76
2023/03/18 02:59:05;;;;;;;5.88;2.00;;;11.20;99.90;;;;;;4984017;28;20049;-76
2023/03/18 03:01:32;;;;;;;9.35;2.47;;;11.10;99.90;;;;;;5025316;23;20030;-71
2023/03/18 03:03:59;;;;;;;7.53;2.50;;;11.10;99.90;;;;;;4977082;28;20489;-73
2023/03/18 03:06:25;;;;;;;4.68;1.85;;;11.20;99.90;;;;;;4991975;28;20077;-73
2023/03/18 03:08:51;;;;;;;5.68;2.33;;;11.10;99.90;;;;;;4976147;28;20040;-73
2023/03/18 03:11:23;;;;;;;6.13;2.00;;;11.10;99.90;;;;;;4990226;28;20481;-72
2023/03/18 03:13:49;;;;;;;4.85;2.28;;;11.00;99.90;;;;;;4941007;28;20107;-72
2023/03/18 03:16:17;;;;;;;5.57;2.22;;;11.10;99.90;;;;;;4972059;28;20113;-73
2023/03/18 03:18:43;;;;;;;4.18;1.85;;;11.10;99.90;;;;;;4973559;28;20092;-73
2023/03/18 03:21:11;;;;;;;4.45;2.30;;;11.20;99.90;;;;;;4986884;28;20114;-73
2023/03/18 03:23:38;;;;;;;5.22;2.38;;;11.30;99.90;;;;;;4957627;28;20464;-73
2023/03/18 03:26:05;;;;;;;3.38;1.70;;;11.30;99.90;;;;;;4969075;28;20034;-72
2023/03/18 03:28:32;;;;;;;4.32;2.05;;;11.40;99.90;;;;;;4959285;28;20038;-72
2023/03/18 03:30:59;;;;;;;3.50;2.13;;;11.40;99.90;;;;;;4968051;28;20026;-73
2023/03/18 03:33:27;;;;;;;5.00;2.45;;;11.40;99.90;;;;;;4958824;28;20109;-72
2023/03/18 03:35:53;;;;;;;4.32;1.80;;;11.30;99.90;;;;;;4967193;28;20049;-72
2023/03/18 03:38:19;;;;;;;5.05;2.13;;;11.20;99.90;;;;;;4959268;28;20162;-73
2023/03/18 03:40:45;;;;;;;7.05;2.60;;;11.20;99.90;;;;;;4966534;28;20510;-73
2023/03/18 03:43:15;;;;;;;7.97;2.42;;;11.10;99.90;;;;;;4976510;28;20053;-73
2023/03/18 03:45:42;;;;;;;9.10;2.25;;;11.00;99.90;;;;;;4959062;28;20118;-73
2023/03/18 03:48:08;;;;;;;6.15;2.30;;;11.00;99.90;;;;;;4954861;28;20022;-73
2023/03/18 03:50:36;;;;;;;2.95;1.60;;;11.00;99.90;;;;;;4984155;28;20034;-73
2023/03/18 03:53:03;;;;;;;6.57;2.50;;;11.00;99.90;;;;;;4976488;28;20065;-73
2023/03/18 03:55:30;;;;;;;3.28;1.92;;;10.90;99.90;;;;;;4983509;28;20022;-73
2023/03/18 03:57:56;;;;;;;3.75;1.88;;;10.90;99.90;;;;;;4943211;28;20052;-73
2023/03/18 04:00:23;;;;;;;5.30;2.55;;;10.90;99.90;;;;;;4966561;28;20030;-73
2023/03/18 04:02:51;;;;;;;4.57;1.58;;;10.90;99.90;;;;;;4972219;28;20148;-73
2023/03/18 04:05:21;;;;;;;5.22;1.80;;;11.00;99.90;;;;;;4971153;28;20093;-74
2023/03/18 04:07:48;;;;;;;7.03;1.58;;;11.00;99.90;;;;;;4956502;28;20089;-73
2023/03/18 04:10:17;;;;;;;4.82;1.95;;;11.00;99.90;;;;;;4966240;28;20487;-73
2023/03/18 04:12:47;;;;;;;3.83;1.42;;;11.00;99.90;;;;;;4968199;28;20043;-73
2023/03/18 04:15:15;;;;;;;4.72;1.80;;;10.90;99.90;;;;;;4958804;28;20473;-73
2023/03/18 04:17:41;;;;;;;4.82;1.90;;;10.90;99.90;;;;;;4949719;28;20062;-73
2023/03/18 04:20:09;;;;;;;6.05;1.75;;;10.90;99.90;;;;;;4974534;28;20521;-73
2023/03/18 04:22:35;;;;;;;4.40;2.22;;;10.90;99.90;;;;;;4948506;28;20081;-74
2023/03/18 04:25:01;;;;;;;2.92;1.80;;;10.90;99.90;;;;;;4965656;28;20033;-73
2023/03/18 04:27:27;;;;;;;9.10;2.10;;;10.90;99.90;;;;;;4976294;28;20035;-73
2023/03/18 04:29:53;;;;;;;3.03;1.70;;;10.80;99.90;;;;;;4965799;28;20386;-73
2023/03/18 04:32:19;;;;;;;6.93;1.23;;;10.90;99.90;;;;;;4977442;28;20130;-73
2023/03/18 04:34:45;;;;;;;6.50;1.85;;;10.90;99.90;;;;;;4972189;28;20049;-72
2023/03/18 04:37:13;;;;;;;2.25;1.38;;;10.90;99.90;;;;;;4959707;28;20038;-74
2023/03/18 04:39:40;;;;;;;3.63;1.63;;;10.90;99.90;;;;;;4962475;28;20399;-73
2023/03/18 04:42:06;;;;;;;3.42;1.63;;;10.80;99.90;;;;;;4980954;28;20103;-73
2023/03/18 04:44:32;;;;;;;2.75;1.35;;;10.80;99.90;;;;;;4978108;28;20075;-73
2023/03/18 04:46:58;;;;;;;3.88;1.77;;;10.90;99.90;;;;;;4983121;28;20413;-74
2023/03/18 04:49:24;;;;;;;2.72;1.58;;;10.90;99.90;;;;;;4975952;28;20046;-73
2023/03/18 04:51:50;;;;;;;4.90;1.52;;;10.90;99.90;;;;;;4985460;28;20038;-73
2023/03/18 04:54:16;;;;;;;5.50;1.85;;;10.90;99.90;;;;;;4962126;28;20030;-73
2023/03/18 04:56:42;;;;;;;4.53;1.85;;;10.90;99.90;;;;;;4986301;28;20054;-73
2023/03/18 04:59:08;;;;;;;2.90;1.45;;;10.80;99.90;;;;;;4973873;28;20074;-73
2023/03/18 05:01:34;;;;;;;4.75;2.05;;;10.80;99.90;;;;;;4987224;28;20434;-73
2023/03/18 05:04:00;;;;;;;2.05;1.45;;;10.80;99.90;;;;;;4972163;28;20085;-72
2023/03/18 05:06:29;;;;;;;4.70;1.98;;;10.80;99.90;;;;;;4987931;28;20126;-73
2023/03/18 05:08:55;;;;;;;5.82;2.03;;;10.80;99.90;;;;;;4962336;28;20038;-73
2023/03/18 05:11:22;;;;;;;2.88;1.63;;;10.70;99.90;;;;;;4977433;28;20035;-72
2023/03/18 05:13:48;;;;;;;6.10;1.98;;;10.70;99.90;;;;;;4971866;28;20034;-73
2023/03/18 05:16:14;;;;;;;6.80;3.03;;;10.60;99.90;;;;;;4970779;28;20039;-73
2023/03/18 05:18:40;;;;;;;4.88;1.63;;;10.60;99.90;;;;;;4976112;28;20034;-73
2023/03/18 05:21:08;;;;;;;5.13;1.38;;;10.60;99.90;;;;;;4960373;28;20035;-73
2023/03/18 05:23:35;;;;;;;2.55;1.40;;;10.60;99.90;;;;;;4958238;28;20026;-73
2023/03/18 05:26:04;;;;;;;3.17;1.55;;;10.60;99.90;;;;;;4970480;28;20046;-72
2023/03/18 05:28:31;;;;;;;3.42;1.88;;;10.60;99.90;;;;;;4961637;28;20038;-73
2023/03/18 05:30:57;;;;;;;5.60;1.55;;;10.50;99.90;;;;;;4987092;28;20038;-72
2023/03/18 05:33:23;;;;;;;7.85;2.00;;;10.60;99.90;;;;;;4979014;28;20417;-73
2023/03/18 05:35:49;;;;;;;3.55;1.25;;;10.60;99.90;;;;;;4986262;28;20041;-73
2023/03/18 05:38:15;;;;;;;2.63;1.27;;;10.60;99.90;;;;;;4961826;28;20104;-73
2023/03/18 05:40:40;;;;;;;8.02;1.38;;;10.60;99.90;;;;;;4984734;28;20026;-73
2023/03/18 05:43:06;;;;;;;6.03;2.03;;;10.60;99.90;;;;;;4961321;28;20482;-72
2023/03/18 05:45:32;;;;;;;4.82;1.80;;;10.60;99.90;;;;;;4983952;28;20130;-73
2023/03/18 05:47:58;;;;;;;2.42;1.27;;;10.60;99.90;;;;;;4966811;28;20058;-72
2023/03/18 05:50:39;;;;;;;4.25;1.83;;;10.60;99.90;;;;;;4985828;28;20030;-71
2023/03/18 05:53:05;;;;;;;3.25;1.52;;;10.60;99.90;;;;;;4961854;28;20061;-72
2023/03/18 05:55:32;;;;;;;4.13;1.45;;;10.60;99.90;;;;;;4985554;28;20073;-72
2023/03/18 05:57:59;;;;;;;3.33;1.40;;;10.60;99.90;;;;;;4978449;28;20077;-72
2023/03/18 06:00:30;;;;;;;5.95;1.30;;;10.60;99.90;;;;;;4985840;28;20076;-73
2023/03/18 06:03:00;;;;;;;2.58;1.38;;;10.60;99.90;;;;;;4961334;28;20105;-73
2023/03/18 06:05:28;;;;;;;7.10;1.20;;;10.70;99.90;;;;;;4968589;28;20039;-73
2023/03/18 06:07:54;;;;;;;3.60;1.83;;;10.70;99.90;;;;;;4961359;28;20042;-73
2023/03/18 06:10:22;;;;;;;5.95;1.77;;;10.70;99.90;;;;;;4984405;28;20453;-73
2023/03/18 06:12:49;;;;;;;4.18;1.55;;;10.80;99.90;;;;;;4952075;28;20510;-73
2023/03/18 06:15:16;;;;;;;3.15;1.48;;;10.80;99.90;;;;;;4960281;28;20117;-72
2023/03/18 06:17:42;;;;;;;4.95;1.95;;;10.80;99.90;;;;;;4951618;28;20046;-73
2023/03/18 06:20:10;;;;;;;3.17;1.50;;;10.90;99.90;;;;;;4985529;28;20069;-73
2023/03/18 06:22:37;;;;;;;2.53;1.10;;;10.90;99.90;;;;;;4978523;28;20024;-74
2023/03/18 06:25:06;;;;;;;3.30;0.98;;;10.90;99.90;;;;;;4945066;28;20400;-73
2023/03/18 06:27:33;;;;;;;2.22;1.25;;;11.00;99.90;;;;;;4967212;28;20050;-71
2023/03/18 06:30:02;;;;;;;2.47;1.17;;;11.10;99.90;;;;;;4985264;28;20026;-71
2023/03/18 06:32:28;;;;;;;3.28;1.48;;;11.30;99.90;;;;;;4978175;28;20081;-71
2023/03/18 06:34:55;;;;;;;7.43;2.42;;;11.30;99.90;;;;;;4984853;28;20065;-70
2023/03/18 06:37:21;;;;;;;3.92;1.30;;;11.30;99.90;;;;;;4979288;28;20445;-71
2023/03/18 06:39:48;;;;;;;4.35;1.00;;;11.40;99.90;;;;;;4984687;28;20082;-72
2023/03/18 06:42:14;;;;;;;8.02;0.90;;;11.40;99.90;;;;;;4980810;28;20395;-72
2023/03/18 06:44:43;;;;;;;2.35;1.25;;;11.40;99.90;;;;;;4982058;28;20023;-69
2023/03/18 06:47:09;;;;;;;10.70;1.10;;;11.40;99.90;;;;;;4981855;28;20027;-73
2023/03/18 06:49:35;;;;;;;3.20;1.45;;;11.40;99.90;;;;;;4963566;28;20130;-71
2023/03/18 06:52:01;;;;;;;5.03;1.65;;;11.50;99.90;;;;;;4984210;28;20045;-69
2023/03/18 06:54:27;;;;;;;1.67;0.77;;;11.60;99.90;;;;;;4975473;28;20026;-72
2023/03/18 06:56:53;;;;;;;3.83;1.33;;;11.70;99.90;;;;;;4960894;28;20049;-71
2023/03/18 06:59:22;;;;;;;2.50;0.80;;;11.70;99.90;;;;;;4971667;28;20078;-73
2023/03/18 07:01:48;;;;;;;3.08;1.50;;;11.70;99.90;;;;;;4968798;28;20031;-72
2023/03/18 07:04:14;;;;;;;2.78;1.55;;;11.80;99.90;;;;;;4976523;28;20121;-73
2023/03/18 07:06:40;;;;;;;6.72;1.38;;;11.90;99.90;;;;;;4973311;28;20499;-72
2023/03/18 07:09:08;;;;;;;3.42;1.70;;;11.90;99.90;;;;;;4961082;28;20026;-72
2023/03/18 07:11:33;;;;;;;1.85;0.98;;;12.10;99.90;;;;;;4972659;28;20085;-72
2023/03/18 07:14:00;;;;;;;1.58;1.20;;;12.10;99.90;;;;;;4974186;28;20446;-73
2023/03/18 07:16:26;;;;;;;2.47;1.25;;;12.20;99.90;;;;;;4989585;28;20034;-72
2023/03/18 07:18:53;;;;;;;7.13;1.95;;;12.30;99.90;;;;;;4953335;28;20125;-73
2023/03/18 07:21:18;;;;;;;1.75;0.90;;;12.40;99.90;;;;;;4971584;28;20034;-73
2023/03/18 07:23:45;;;;;;;2.70;1.17;;;12.40;99.90;;;;;;4954738;28;20038;-72
2023/03/18 07:26:11;;;;;;;2.38;1.33;;;12.50;99.90;;;;;;4971763;28;20058;-73
2023/03/18 07:28:37;;;;;;;3.17;1.15;;;12.50;99.90;;;;;;4970054;28;20038;-71
2023/03/18 07:31:03;;;;;;;4.20;1.20;;;12.60;99.90;;;;;;4954822;28;20042;-72
2023/03/18 07:33:29;;;;;;;5.43;1.58;;;12.60;99.90;;;;;;4968903;28;20035;-71
2023/03/18 07:35:55;;;;;;;2.28;1.13;;;12.60;99.90;;;;;;4966170;28;20041;-72
2023/03/18 07:38:22;;;;;;;2.35;1.20;;;12.70;99.90;;;;;;4964991;28;20109;-72
2023/03/18 07:40:47;;;;;;;2.47;1.15;;;12.80;99.90;;;;;;4962532;28;20034;-73
2023/03/18 07:43:14;;;;;;;2.92;1.80;;;13.00;99.90;;;;;;4954326;28;20034;-72
2023/03/18 07:45:40;;;;;;;5.45;1.80;;;13.10;99.90;;;;;;4983641;28;20033;-74
2023/03/18 07:48:06;;;;;;;2.25;0.90;;;13.30;99.90;;;;;;4977123;28;20030;-73
2023/03/18 07:50:32;;;;;;;2.85;1.10;;;13.50;99.90;;;;;;4983916;28;20030;-71
2023/03/18 07:52:58;;;;;;;5.43;1.23;;;13.60;99.80;;;;;;4976283;28;20030;-71
2023/03/18 07:55:24;;;;;;;2.72;1.15;;;13.70;99.90;;;;;;4983709;28;20395;-72
2023/03/18 07:57:50;;;;;;;3.15;1.27;;;13.80;99.40;;;;;;4976568;28;20034;-76
2023/03/18 08:00:17;;;;;;;3.03;1.20;;;13.90;98.80;;;;;;4983662;28;20700;-75
2023/03/18 08:02:43;;;;;;;5.90;1.00;;;14.00;99.00;;;;;;4976176;28;20442;-74
2023/03/18 08:05:09;;;;;;;3.50;1.23;;;13.90;98.80;;;;;;4983658;28;20029;-74
2023/03/18 08:07:37;;;;;;;5.13;1.40;;;13.90;99.10;;;;;;4959738;28;20097;-73
2023/03/18 08:10:03;;;;;;;3.80;1.05;;;13.80;99.90;;;;;;4983609;28;20394;-73
2023/03/18 08:12:29;;;;;;;3.03;1.40;;;13.80;99.90;;;;;;4965931;28;20047;-73
2023/03/18 08:14:55;;;;;;;3.88;1.27;;;13.90;99.50;;;;;;4983350;28;20125;-75
2023/03/18 08:17:20;;;;;;;2.13;1.35;;;13.90;98.80;;;;;;4963123;28;20039;-75
2023/03/18 08:19:47;;;;;;;1.98;1.02;;;13.80;98.60;;;;;;4972874;28;20030;-75
2023/03/18 08:22:14;;;;;;;1.90;1.30;;;13.60;99.20;;;;;;4956731;28;20144;-75
2023/03/18 08:24:41;;;;;;;3.47;1.17;;;13.70;98.60;;;;;;4980209;28;20114;-75
2023/03/18 08:27:08;;;;;;;4.65;2.25;;;13.60;98.70;;;;;;4963730;28;20027;-75
2023/03/18 08:29:34;;;;;;;5.07;1.88;;;13.70;98.90;;;;;;4977095;28;20038;-75
2023/03/18 08:32:00;;;;;;;2.92;1.23;;;13.70;98.80;;;;;;4957576;28;20042;-76
2023/03/18 08:34:27;;;;;;;2.50;1.40;;;13.80;98.60;;;;;;4976697;28;20061;-73
2023/03/18 08:36:52;;;;;;;2.85;1.10;;;14.00;98.80;;;;;;4984862;28;20089;-74
2023/03/18 08:39:18;;;;;;;1.98;1.02;;;14.00;98.00;;;;;;4975647;28;20031;-71
2023/03/18 08:41:45;;;;;;;2.83;1.27;;;14.20;98.70;;;;;;4985765;28;20027;-74
2023/03/18 08:44:10;;;;;;;2.28;0.75;;;14.40;97.80;;;;;;4974424;28;20042;-69
2023/03/18 08:46:37;;;;;;;4.50;1.27;;;14.50;97.50;;;;;;4987273;28;20034;-68
2023/03/18 08:49:03;;;;;;;2.58;1.00;;;14.50;97.70;;;;;;4973507;28;20035;-73
2023/03/18 08:51:29;;;;;;;3.53;1.05;;;14.50;97.80;;;;;;4990368;28;20077;-74
2023/03/18 08:53:55;;;;;;;1.25;0.73;;;14.50;98.50;;;;;;4959072;28;20506;-74
2023/03/18 08:56:21;;;;;;;2.10;0.88;;;14.40;98.30;;;;;;4965943;28;20073;-74
2023/03/18 08:58:47;;;;;;;1.25;0.88;;;14.50;98.00;;;;;;4975500;28;20041;-75
2023/03/18 09:01:14;;;;;;;2.42;1.00;;;14.50;96.50;;;;;;4980666;28;20035;-74
2023/03/18 09:03:40;;;;;;;1.95;0.85;;;14.60;97.00;;;;;;4973284;23;20045;-73
2023/03/18 09:06:06;;;;;;;1.52;0.90;;;14.60;96.60;;;;;;4988572;28;20027;-73
2023/03/18 09:08:32;;;;;;;1.58;0.93;;;14.70;95.70;;;;;;4982955;28;20034;-73
2023/03/18 09:10:58;;;;;;;2.20;1.10;;;14.90;96.50;;;;;;4985197;28;20109;-74
2023/03/18 09:13:25;;;;;;;4.13;1.00;;;15.10;96.80;;;;;;4986785;28;20039;-74
2023/03/18 09:15:51;;;;;;;2.10;0.82;;;14.90;95.90;;;;;;4974598;28;20409;-74
2023/03/18 09:18:18;;;;;;;1.50;0.70;;;14.90;95.10;;;;;;4973567;28;20041;-74
2023/03/18 09:20:45;;;;;;;2.75;1.00;;;15.10;95.20;;;;;;4992401;28;20106;-74
2023/03/18 09:23:12;;;;;;;2.53;1.00;;;15.20;95.20;;;;;;4976313;28;20089;-74
2023/03/18 09:25:41;;;;;;;1.33;0.60;;;15.30;95.20;;;;;;4994649;28;20034;-76
2023/03/18 09:28:07;;;;;;;2.05;0.68;;;15.40;95.10;;;;;;4976650;28;20651;-73
2023/03/18 09:30:33;;;;;;;3.47;0.65;;;15.40;94.30;;;;;;4962789;28;20125;-72
2023/03/18 09:33:00;;;;;;;1.65;0.65;;;15.40;94.10;;;;;;4971158;28;20414;-73
2023/03/18 09:35:27;;;;;;;2.30;0.60;;;15.50;93.90;;;;;;4993696;28;20034;-73
2023/03/18 09:37:54;;;;;;;3.80;0.80;;;15.50;94.60;;;;;;4980804;28;20093;-73
2023/03/18 09:40:51;;;;;;;4.47;1.20;;;15.70;94.60;;;;;;4986016;28;20023;-72
2023/03/18 09:43:29;;;;;;;2.85;1.08;;;16.00;93.40;;;;;;4957847;28;20395;-72
2023/03/18 09:46:31;;;;;;;1.70;0.55;;;16.20;93.90;;;;;;4976254;28;20037;-72
2023/03/18 09:49:33;;;;;;;1.73;1.05;;;16.10;93.60;;;;;;4966928;28;20041;-72
2023/03/18 09:52:26;;;;;;;0.80;0.40;;;16.30;93.60;;;;;;4965487;28;20499;-71
2023/03/18 09:55:07;;;;;;;1.20;0.52;;;16.50;93.30;;;;;;4990142;28;20096;-72
2023/03/18 09:57:41;;;;;;;2.13;1.10;;;16.50;93.90;;;;;;4983513;28;20030;-67
2023/03/18 10:00:30;;;;;;;1.52;0.90;;;16.20;93.90;;;;;;4976080;28;20034;-71
2023/03/18 10:03:23;;;;;;;2.43;0.70;;;16.40;93.20;;;;;;4973766;28;20476;-70
2023/03/18 10:05:52;;;;;;;3.10;1.25;;;16.40;92.60;;;;;;4978669;28;20034;-72
2023/03/18 10:08:28;;;;;;;3.30;1.33;;;16.60;92.70;;;;;;4957274;28;20023;-72
2023/03/18 10:10:54;;;;;;;3.03;0.77;;;16.80;92.80;;;;;;4975203;28;20536;-72
2023/03/18 10:13:44;;;;;;;1.48;0.70;;;17.00;91.70;;;;;;4987941;28;20030;-72
2023/03/18 10:16:24;;;;;;;1.15;0.50;;;17.10;91.30;;;;;;4969919;28;20123;-72
2023/03/18 10:18:50;;;;;;;0.65;0.40;;;17.30;91.00;;;;;;4975752;28;20743;-73
2023/03/18 10:21:31;;;;;;;1.42;0.55;;;17.30;90.70;;;;;;5000429;28;20113;-71
2023/03/18 10:24:34;;;;;;;5.00;0.80;;;17.40;90.80;;;;;;4971225;28;20037;-72
2023/03/18 10:27:07;;;;;;;4.88;0.80;;;17.40;90.30;;;;;;4977330;28;20130;-71
2023/03/18 10:30:03;;;;;;;0.95;0.45;;;17.20;90.50;;;;;;4992679;28;20038;-73
2023/03/18 10:32:52;;;;;;;5.25;1.02;;;17.20;92.20;;;;;;4993003;28;20038;-71
2023/03/18 10:35:58;;;;;;;1.45;0.57;;;17.60;92.30;;;;;;4972392;28;20039;-72
2023/03/18 10:38:40;;;;;;;4.22;1.35;;;18.00;91.20;;;;;;4943373;28;20042;-72
2023/03/18 10:41:35;;;;;;;1.85;0.70;;;18.00;89.40;;;;;;4970195;28;20453;-72
2023/03/18 10:44:29;;;;;;;4.80;0.90;;;18.30;89.10;;;;;;4971573;28;20517;-71
2023/03/18 10:47:31;;;;;;;13.88;1.02;;;17.80;90.00;;;;;;4992943;28;20042;-72
2023/03/18 10:50:28;;;;;;;1.05;0.50;;;18.20;90.40;;;;;;4960724;28;20091;-70
2023/03/18 10:53:08;;;;;;;1.65;0.70;;;18.70;88.50;;;;;;4969761;28;20059;-69
2023/03/18 10:55:44;;;;;;;2.75;0.98;;;19.10;88.50;;;;;;4976717;28;20448;-72
2023/03/18 10:58:16;;;;;;;4.78;0.60;;;18.70;86.30;;;;;;4974513;28;20027;-74
2023/03/18 11:00:43;;;;;;;2.67;0.68;;;18.80;86.40;;;;;;4970062;28;20030;-70
2023/03/18 11:03:46;;;;;;;3.42;0.52;;;19.40;86.80;;;;;;4996430;28;20532;-69
2023/03/18 11:06:44;;;;;;;1.67;0.70;;;19.10;84.80;;;;;;4965086;28;20391;-71
2023/03/18 11:09:23;;;;;;;3.00;0.93;;;19.30;83.20;;;;;;4966396;28;20049;-70
2023/03/18 11:11:56;;;;;;;0.77;0.52;;;19.30;84.70;;;;;;4986705;28;20081;-70
2023/03/18 11:14:29;;;;;;;1.02;0.63;;;19.20;85.60;;;;;;4997821;28;20046;-72
2023/03/18 11:17:02;;;;;;;0.93;0.50;;;19.20;87.20;;;;;;4988827;28;20030;-70
2023/03/18 11:19:46;;;;;;;0.85;0.40;;;18.90;84.70;;;;;;4974027;28;20073;-73
2023/03/18 11:22:25;;;;;;;2.40;0.60;;;19.40;85.00;;;;;;4974089;28;20033;-73
2023/03/18 11:25:11;;;;;;;1.38;0.45;;;19.50;83.10;;;;;;4963217;28;20161;-73
2023/03/18 11:27:40;;;;;;;1.85;0.70;;;19.90;82.60;;;;;;4989573;28;20050;-72
2023/03/18 11:30:20;;;;;;;2.45;0.68;;;20.00;84.30;;;;;;4992250;28;20030;-72
2023/03/18 11:33:01;;;;;;;1.25;0.65;;;20.20;80.50;;;;;;4972392;28;20034;-75
2023/03/18 11:35:49;;;;;;;5.13;1.45;;;20.60;79.40;;;;;;4975259;28;20458;-73
2023/03/18 11:38:28;;;;;;;1.55;0.68;;;20.50;80.30;;;;;;4991644;28;20406;-72
2023/03/18 11:41:10;;;;;;;1.00;0.50;;;20.50;79.30;;;;;;4975287;28;20402;-72
2023/03/18 11:43:37;;;;;;;2.05;0.80;;;20.50;79.60;;;;;;4973093;28;20121;-73
2023/03/18 11:46:08;;;;;;;0.55;0.35;;;21.00;76.50;;;;;;4991885;28;20038;-71
2023/03/18 11:48:39;;;;;;;2.60;0.73;;;20.80;76.50;;;;;;4974563;28;20081;-77
2023/03/18 11:51:21;;;;;;;2.95;0.80;;;21.00;77.30;;;;;;4974515;28;20375;-69
2023/03/18 11:54:01;;;;;;;1.65;0.65;;;21.10;77.20;;;;;;4973854;28;20055;-72
2023/03/18 11:56:43;;;;;;;0.60;0.20;;;21.50;74.00;;;;;;4991475;28;20085;-78
2023/03/18 11:59:45;;;;;;;3.15;0.70;;;21.00;74.90;;;;;;4973784;28;20289;-59
2023/03/18 12:02:27;;;;;;;2.20;1.33;;;22.90;71.80;;;;;;4975667;28;20026;-58
2023/03/18 12:05:34;;;;;;;1.73;0.60;;;22.80;68.80;;;;;;4991206;28;20034;-54
2023/03/18 12:08:12;;;;;;;1.63;0.57;;;22.80;69.50;;;;;;4970437;28;20026;-52
2023/03/18 12:11:06;;;;;;;0.47;0.40;;;22.60;69.10;;;;;;4972708;28;20444;-52
2023/03/18 12:13:54;;;;;;;2.05;0.68;;;22.70;69.50;;;;;;4947736;28;20506;-54
2023/03/18 12:16:54;;;;;;;1.65;0.77;;;22.10;71.40;;;;;;4990136;28;20030;-52
2023/03/18 12:20:13;;;;;;;2.25;0.98;;;22.10;70.30;;;;;;4956639;28;20061;-55
2023/03/18 12:23:19;;;;;;;1.70;0.70;;;22.80;68.80;;;;;;4946168;28;20444;-54
2023/03/18 12:26:14;;;;;;;1.65;1.05;;;21.80;70.10;;;;;;4974967;28;20121;-55
2023/03/18 12:29:23;;;;;;;6.22;0.55;;;22.00;67.80;;;;;;4976482;28;20339;-52
2023/03/18 12:32:32;;;;;;;2.95;1.08;;;21.70;68.60;;;;;;4973185;28;20014;-54
2023/03/18 12:35:23;;;;;;;0.55;0.40;;;22.70;68.50;;;;;;4983936;28;20490;-56
2023/03/18 12:38:07;;;;;;;5.10;1.10;;;21.60;68.50;;;;;;4989797;28;20038;-54
2023/03/18 12:40:40;;;;;;;3.35;1.52;;;20.90;70.60;;;;;;4990492;28;20035;-54
2023/03/18 12:43:42;;;;;;;1.63;0.70;;;20.30;71.90;;;;;;4990694;28;20038;-55
2023/03/18 12:46:26;;;;;;;0.82;0.40;;;19.60;71.20;;;;;;4969656;28;20019;-54
2023/03/18 12:49:21;;;;;;;6.25;1.00;;;19.90;73.00;;;;;;4965734;28;20038;-53
2023/03/18 12:52:09;;;;;;;0.73;0.40;;;20.00;71.50;;;;;;4972780;28;20121;-54
2023/03/18 12:54:42;;;;;;;2.17;0.55;;;19.80;73.50;;;;;;4990576;28;20037;-54
2023/03/18 12:57:32;;;;;;;2.58;0.55;;;20.00;73.80;;;;;;4973196;28;20030;-54
2023/03/18 13:00:12;;;;;;;1.27;0.57;;;20.10;71.60;;;;;;4967482;28;20035;-56
2023/03/18 13:02:51;;;;;;;3.97;0.98;;;20.70;70.10;;;;;;4973642;28;20114;-73
2023/03/18 13:05:46;;;;;;;3.15;1.10;;;21.10;70.10;;;;;;4974322;28;20161;-73
2023/03/18 13:08:43;;;;;;;2.35;0.40;;;21.80;70.20;;;;;;4986403;28;20038;-73
2023/03/18 13:11:54;;;;;;;4.50;0.60;;;21.80;66.90;;;;;;4978167;28;20053;-73
2023/03/18 13:14:35;;;;;;;;;;;21.60;67.00;;;;;;4971408;28;20066;-73